Sunday, December 21, 2014, 10:25 PM EST

KJYO, Leesburg / Godfrey

Location: Leesburg, VA, United States Lat: 39.083
Local Time: 10:25 PM EST ( 3:25 GMT) Lon: -77.567
Time Zone: US/Eastern Elev: 390 ft

Show me the last for .
Show Decoded

2014-12-21 21:55 METAR KJYO 220255Z AUTO 01003KT 10SM CLR 00/M02 A3034 RMK AO2 =
2014-12-21 21:35 METAR KJYO 220235Z AUTO 36003KT 10SM CLR 00/M02 A3034 RMK AO2 =
2014-12-21 21:15 METAR KJYO 220215Z AUTO 01003KT 10SM CLR 00/M02 A3033 RMK AO2 =
2014-12-21 20:55 METAR KJYO 220155Z AUTO 01003KT 10SM CLR 00/M02 A3033 RMK AO2 =
2014-12-21 20:35 METAR KJYO 220135Z AUTO 03003KT 10SM CLR 00/M02 A3032 RMK AO2 =
2014-12-21 20:15 METAR KJYO 220115Z AUTO 01003KT 10SM CLR M01/M02 A3032 RMK AO2 =
2014-12-21 19:55 METAR KJYO 220055Z AUTO 10SM CLR M01/M03 A3033 RMK AO2 =
2014-12-21 19:35 METAR KJYO 220035Z AUTO 10SM CLR 00/M02 A3032 RMK AO2 =
2014-12-21 19:15 METAR KJYO 220015Z AUTO 00000KT 10SM CLR 00/M03 A3032 RMK AO2 =
2014-12-21 18:55 METAR KJYO 212355Z AUTO 05003KT 10SM CLR 01/M02 A3031 RMK AO2 =
2014-12-21 18:35 METAR KJYO 212335Z AUTO 10SM CLR 01/M02 A3032 RMK AO2 =
2014-12-21 18:15 METAR KJYO 212315Z AUTO 10SM CLR 00/M02 A3033 RMK AO2 =
2014-12-21 17:55 METAR KJYO 212255Z AUTO 10SM CLR 02/M02 A3032 RMK AO2 =
2014-12-21 17:35 METAR KJYO 212235Z AUTO 10SM CLR 02/M02 A3031 RMK AO2 =
2014-12-21 17:15 METAR KJYO 212215Z AUTO 10SM CLR 02/M02 A3030 RMK AO2 =
2014-12-21 16:55 METAR KJYO 212155Z AUTO 10SM CLR 03/M02 A3031 RMK AO2 =
2014-12-21 16:35 METAR KJYO 212135Z AUTO 10SM CLR 03/M02 A3032 RMK AO2 =
2014-12-21 16:15 METAR KJYO 212115Z AUTO 10SM CLR 04/M02 A3029 RMK AO2 =
2014-12-21 15:55 METAR KJYO 212055Z AUTO 10SM CLR 04/M01 A3028 RMK AO2 =
2014-12-21 15:35 METAR KJYO 212035Z AUTO 03006KT 10SM CLR 05/M01 A3028 RMK AO2 =
2014-12-21 15:15 METAR KJYO 212015Z AUTO 36004KT 10SM CLR 05/M01 A3028 RMK AO2 =
2014-12-21 14:55 METAR KJYO 211955Z AUTO 36003KT 10SM CLR 05/M01 A3028 RMK AO2 =
2014-12-21 14:35 METAR KJYO 211935Z AUTO 35005KT 10SM CLR 05/M01 A3029 RMK AO2 =
2014-12-21 14:15 METAR KJYO 211915Z AUTO 35004KT 10SM BKN070 05/M01 A3029 RMK AO2 =
2014-12-21 13:55 METAR KJYO 211855Z AUTO 02005KT 10SM OVC070 04/M01 A3030 RMK AO2 =
2014-12-21 13:35 METAR KJYO 211835Z AUTO 10SM OVC070 04/M02 A3031 RMK AO2 =
2014-12-21 13:15 METAR KJYO 211815Z AUTO 33004KT 10SM OVC070 04/M02 A3031 RMK AO2 =
2014-12-21 12:55 METAR KJYO 211755Z AUTO 32003KT 10SM OVC070 03/M02 A3032 RMK AO2 =
2014-12-21 12:35 METAR KJYO 211735Z AUTO 10SM OVC070 03/M02 A3033 RMK AO2 =
2014-12-21 12:15 METAR KJYO 211715Z AUTO 10SM OVC070 03/M02 A3034 RMK AO2 =
2014-12-21 11:55 METAR KJYO 211655Z AUTO 10SM OVC060 03/M02 A3035 RMK AO2 =
2014-12-21 11:35 METAR KJYO 211635Z AUTO 10SM OVC060 02/M02 A3035 RMK AO2 =
2014-12-21 11:15 METAR KJYO 211615Z AUTO 10SM OVC060 02/M02 A3036 RMK AO2 =
2014-12-21 10:55 METAR KJYO 211555Z AUTO 10SM OVC060 02/M03 A3036 RMK AO2 =
2014-12-21 10:35 METAR KJYO 211535Z AUTO 10SM OVC060 01/M03 A3037 RMK AO2 =
2014-12-21 10:15 METAR KJYO 211515Z AUTO 00000KT 10SM OVC060 01/M03 A3037 RMK AO2 =
2014-12-21 09:55 METAR KJYO 211455Z AUTO 00000KT 10SM OVC060 01/M02 A3036 RMK AO2 =
2014-12-21 09:35 METAR KJYO 211435Z AUTO 36003KT 10SM SCT041 OVC060 01/M02 A3036 RMK AO2 =
2014-12-21 09:15 METAR KJYO 211415Z AUTO 00000KT 10SM SCT041 OVC060 01/M02 A3036 RMK AO2 =
2014-12-21 08:55 METAR KJYO 211355Z AUTO 00000KT 10SM BKN041 OVC060 00/M02 A3036 RMK AO2 =
2014-12-21 08:35 METAR KJYO 211335Z AUTO 00000KT 10SM OVC060 00/M02 A3035 RMK AO2 =
2014-12-21 08:15 METAR KJYO 211315Z AUTO 00000KT 10SM OVC060 00/M02 A3034 RMK AO2 =
2014-12-21 07:55 METAR KJYO 211255Z AUTO 01003KT 10SM OVC060 00/M02 A3034 RMK AO2 =
2014-12-21 07:35 METAR KJYO 211235Z AUTO 00000KT 10SM OVC060 00/M02 A3034 RMK AO2 =
2014-12-21 07:15 METAR KJYO 211215Z AUTO 00000KT 10SM OVC060 00/M02 A3034 RMK AO2 =
2014-12-21 06:55 METAR KJYO 211155Z AUTO 00000KT 10SM OVC060 00/M02 A3033 RMK AO2 =
2014-12-21 06:35 METAR KJYO 211135Z AUTO 00000KT 10SM OVC060 00/M02 A3033 RMK AO2 =
2014-12-21 06:15 METAR KJYO 211115Z AUTO 00000KT 10SM OVC060 00/M02 A3033 RMK AO2 =
2014-12-21 05:55 METAR KJYO 211055Z AUTO 00000KT 10SM BKN041 OVC060 00/M02 A3032 RMK AO2 =
2014-12-21 05:35 METAR KJYO 211035Z AUTO 03003KT 10SM OVC041 00/M02 A3031 RMK AO2 =
2014-12-21 05:15 METAR KJYO 211015Z AUTO 00000KT 10SM OVC043 00/M02 A3031 RMK AO2 =
2014-12-21 04:55 METAR KJYO 210955Z AUTO 01003KT 10SM OVC045 00/M02 A3031 RMK AO2 =
2014-12-21 04:35 METAR KJYO 210935Z AUTO 00000KT 10SM OVC045 00/M02 A3031 RMK AO2 =
2014-12-21 04:15 METAR KJYO 210915Z AUTO 02004KT 10SM SCT047 OVC065 00/M02 A3031 RMK AO2 =
2014-12-21 03:55 METAR KJYO 210855Z AUTO 00000KT 10SM OVC065 00/M02 A3031 RMK AO2 =
2014-12-21 03:35 METAR KJYO 210835Z AUTO 02003KT 10SM OVC065 00/M02 A3031 RMK AO2 =
2014-12-21 03:15 METAR KJYO 210815Z AUTO 00000KT 10SM SCT048 OVC065 00/M02 A3031 RMK AO2 =
2014-12-21 02:55 METAR KJYO 210755Z AUTO 00000KT 10SM OVC048 00/M02 A3031 RMK AO2 =
2014-12-21 02:35 METAR KJYO 210735Z AUTO 00000KT 10SM OVC046 00/M02 A3031 RMK AO2 =
2014-12-21 02:15 METAR KJYO 210715Z AUTO 00000KT 10SM OVC044 00/M02 A3031 RMK AO2 =
2014-12-21 01:55 METAR KJYO 210655Z AUTO 00000KT 10SM BKN044 BKN055 OVC075 00/M02 A3031 RMK AO2 =
2014-12-21 01:35 METAR KJYO 210635Z AUTO 00000KT 10SM SCT046 SCT055 OVC075 00/M01 A3030 RMK AO2 =
2014-12-21 01:15 METAR KJYO 210615Z AUTO 00000KT 10SM BKN046 OVC075 00/M02 A3030 RMK AO2 =
2014-12-21 00:55 METAR KJYO 210555Z AUTO 00000KT 10SM BKN048 OVC070 00/M01 A3029 RMK AO2 =
2014-12-21 00:35 METAR KJYO 210535Z AUTO 00000KT 10SM OVC070 01/M01 A3029 RMK AO2 =
2014-12-21 00:15 METAR KJYO 210515Z AUTO 10SM SCT047 OVC070 00/M01 A3030 RMK AO2 =
2014-12-20 23:55 METAR KJYO 210455Z AUTO 00000KT 10SM SCT047 OVC070 00/M01 A3030 RMK AO2 =
2014-12-20 23:35 METAR KJYO 210435Z AUTO 10SM OVC070 00/M02 A3030 RMK AO2 =
2014-12-20 23:15 METAR KJYO 210415Z AUTO 10SM OVC070 00/M02 A3030 RMK AO2 =
2014-12-20 22:55 METAR KJYO 210355Z AUTO 10SM OVC070 00/M02 A3030 RMK AO2 =
2014-12-20 22:35 METAR KJYO 210335Z AUTO 00000KT 10SM OVC070 00/M02 A3030 RMK AO2 =

Support USWX by starting your Amazon purchase here.